createdAt,value
2022-12-04T00:01:13.783Z,98245.22
2022-12-04T00:03:40.831Z,98242.63
2022-12-04T00:06:16.976Z,98239.00
2022-12-04T00:08:45.195Z,98231.44
2022-12-04T00:11:13.888Z,98236.81
2022-12-04T00:13:41.573Z,98228.34
2022-12-04T00:16:10.951Z,98235.50
2022-12-04T00:18:38.000Z,98236.72
2022-12-04T00:21:09.431Z,98218.06
2022-12-04T00:23:37.565Z,98208.81
2022-12-04T00:26:10.488Z,98224.81
2022-12-04T00:28:37.870Z,98217.50
2022-12-04T00:31:09.480Z,98223.63
2022-12-04T00:33:36.680Z,98219.97
2022-12-04T00:36:06.582Z,98209.78
2022-12-04T00:38:33.380Z,98208.25
2022-12-04T00:41:01.058Z,98207.28
2022-12-04T00:43:28.668Z,98210.56
2022-12-04T00:45:55.556Z,98199.56
2022-12-04T00:48:22.816Z,98196.28
2022-12-04T00:50:49.739Z,98196.44
2022-12-04T00:53:16.467Z,98196.66
2022-12-04T00:55:44.428Z,98189.13
2022-12-04T00:58:11.510Z,98188.34
2022-12-04T01:00:40.683Z,98184.31
2022-12-04T01:03:08.743Z,98186.91
2022-12-04T01:05:43.858Z,98181.69
2022-12-04T01:08:11.945Z,98175.69
2022-12-04T01:10:39.840Z,98177.34
2022-12-04T01:13:06.543Z,98183.84
2022-12-04T01:15:33.662Z,98179.44
2022-12-04T01:18:00.363Z,98176.13
2022-12-04T01:20:26.969Z,98177.34
2022-12-04T01:22:53.588Z,98174.13
2022-12-04T01:25:20.432Z,98170.84
2022-12-04T01:27:47.329Z,98172.38
2022-12-04T01:30:14.100Z,98171.94
2022-12-04T01:32:40.804Z,98171.22
2022-12-04T01:35:07.803Z,98169.25
2022-12-04T01:37:34.518Z,98176.69
2022-12-04T01:40:01.170Z,98175.16
2022-12-04T01:42:27.818Z,98172.53
2022-12-04T01:45:31.252Z,98168.28
2022-12-04T01:48:07.004Z,98169.16
2022-12-04T01:50:33.771Z,98160.50
2022-12-04T01:53:01.087Z,98150.22
2022-12-04T01:55:27.982Z,98153.66
2022-12-04T01:57:55.767Z,98156.28
2022-12-04T02:00:22.410Z,98146.97
2022-12-04T02:02:48.990Z,98141.88
2022-12-04T02:05:21.788Z,98135.16
2022-12-04T02:07:51.433Z,98134.28
2022-12-04T02:10:24.396Z,98139.31
2022-12-04T02:13:06.519Z,98134.91
2022-12-04T02:15:44.020Z,98134.06
2022-12-04T02:18:35.528Z,98133.97
2022-12-04T02:21:21.151Z,98124.66
2022-12-04T02:23:54.727Z,98132.28
2022-12-04T02:26:41.075Z,98133.09
2022-12-04T02:29:32.413Z,98129.88
2022-12-04T02:32:09.476Z,98120.56
2022-12-04T02:34:44.140Z,98119.75
2022-12-04T02:37:29.916Z,98125.75
2022-12-04T02:40:04.795Z,98114.75
2022-12-04T02:42:39.235Z,98119.75
2022-12-04T02:45:14.320Z,98112.03
2022-12-04T02:47:44.235Z,98118.72
2022-12-04T02:50:14.755Z,98115.19
2022-12-04T02:53:02.639Z,98111.81
2022-12-04T02:55:35.475Z,98113.97
2022-12-04T02:58:09.427Z,98110.72
2022-12-04T03:00:38.267Z,98107.59
2022-12-04T03:03:13.944Z,98113.00
2022-12-04T03:05:47.798Z,98101.28
2022-12-04T03:08:19.771Z,98099.47
2022-12-04T03:10:54.251Z,98093.47
2022-12-04T03:13:36.817Z,98091.69
2022-12-04T03:16:10.436Z,98089.81
2022-12-04T03:18:41.815Z,98090.66
2022-12-04T03:21:17.731Z,98081.34
2022-12-04T03:23:49.308Z,98066.94
2022-12-04T03:26:38.748Z,98057.78
2022-12-04T03:29:16.108Z,98057.38
2022-12-04T03:31:46.933Z,98058.53
2022-12-04T03:34:26.748Z,98059.50
2022-12-04T03:36:58.843Z,98061.34
2022-12-04T03:39:34.971Z,98054.63
2022-12-04T03:42:13.554Z,98041.25
2022-12-04T03:44:46.519Z,98041.47
2022-12-04T03:47:42.879Z,98044.81
2022-12-04T03:50:15.058Z,98035.38
2022-12-04T03:53:05.505Z,98031.38
2022-12-04T03:55:45.207Z,98035.44
2022-12-04T03:58:18.666Z,98026.34
2022-12-04T04:00:49.386Z,98015.81
2022-12-04T04:03:50.814Z,98021.31
2022-12-04T04:06:22.013Z,98029.66
2022-12-04T04:08:52.374Z,98026.28
2022-12-04T04:11:34.999Z,98034.66
2022-12-04T04:14:28.391Z,98018.41
2022-12-04T04:17:25.315Z,98027.88
2022-12-04T04:20:22.160Z,98026.00
2022-12-04T04:23:10.547Z,98019.13
2022-12-04T04:25:40.430Z,98015.13
2022-12-04T04:28:47.341Z,98021.19
2022-12-04T04:31:26.392Z,98025.03
2022-12-04T04:34:16.329Z,98016.72
2022-12-04T04:36:59.741Z,98020.09
2022-12-04T04:40:00.029Z,98024.47
2022-12-04T04:42:58.612Z,98009.88
2022-12-04T04:45:36.427Z,98019.19
2022-12-04T04:48:12.903Z,98013.13
2022-12-04T04:50:41.562Z,98011.41
2022-12-04T04:53:33.954Z,98013.97
2022-12-04T04:56:01.924Z,97999.75
2022-12-04T04:58:28.550Z,98001.75
2022-12-04T05:01:01.291Z,97999.13
2022-12-04T05:03:29.311Z,97995.06
2022-12-04T05:05:55.957Z,97998.19
2022-12-04T05:08:23.236Z,97994.75
2022-12-04T05:10:49.876Z,98003.75
2022-12-04T05:13:17.707Z,97996.66
2022-12-04T05:15:44.573Z,98006.44
2022-12-04T05:18:11.599Z,98005.50
2022-12-04T05:20:39.246Z,98004.50
2022-12-04T05:23:07.279Z,97994.19
2022-12-04T05:25:33.964Z,97997.97
2022-12-04T05:28:00.675Z,98003.06
2022-12-04T05:30:27.296Z,97996.09
2022-12-04T05:32:54.117Z,97993.59
2022-12-04T05:35:20.730Z,97987.25
2022-12-04T05:37:48.197Z,97992.31
2022-12-04T05:40:14.876Z,97995.19
2022-12-04T05:42:41.596Z,97994.66
2022-12-04T05:45:08.635Z,97996.66
2022-12-04T05:47:43.171Z,97995.22
2022-12-04T05:50:12.211Z,98000.41
2022-12-04T05:52:39.201Z,97993.56
2022-12-04T05:55:06.363Z,97993.72
2022-12-04T05:57:32.998Z,97997.06
2022-12-04T05:59:59.712Z,97994.19
2022-12-04T06:02:26.471Z,97989.91
2022-12-04T06:04:53.235Z,97998.31
2022-12-04T06:07:19.986Z,97987.06
2022-12-04T06:09:46.621Z,97991.59
2022-12-04T06:12:13.197Z,97985.06
2022-12-04T06:14:40.182Z,97979.28
2022-12-04T06:17:06.940Z,97972.69
2022-12-04T06:19:33.692Z,97976.94
2022-12-04T06:22:00.247Z,97975.44
2022-12-04T06:24:26.854Z,97978.75
2022-12-04T06:27:26.243Z,97977.72
2022-12-04T06:29:45.036Z,97971.56
2022-12-04T06:32:14.019Z,97968.25
2022-12-04T06:34:44.615Z,97971.50
2022-12-04T06:37:11.366Z,97965.56
2022-12-04T06:39:38.027Z,97965.56
2022-12-04T06:42:04.687Z,97960.47
2022-12-04T06:44:31.390Z,97960.19
2022-12-04T06:47:00.967Z,97966.03
2022-12-04T06:49:28.366Z,97964.38
2022-12-04T06:51:55.046Z,97956.88
2022-12-04T06:54:21.688Z,97971.91
2022-12-04T06:56:49.793Z,97975.81
2022-12-04T06:59:16.511Z,97976.63
2022-12-04T07:01:43.341Z,97979.81
2022-12-04T07:04:10.012Z,97980.69
2022-12-04T07:06:38.966Z,97982.44
2022-12-04T07:09:17.390Z,97982.44
2022-12-04T07:11:45.010Z,97980.78
2022-12-04T07:14:13.031Z,97969.28
2022-12-04T07:16:42.026Z,97976.94
2022-12-04T07:19:14.217Z,97977.91
2022-12-04T07:21:41.836Z,97976.78
2022-12-04T07:24:13.727Z,97973.53
2022-12-04T07:26:40.522Z,97973.53
2022-12-04T07:29:07.124Z,97983.06
2022-12-04T07:31:33.769Z,97981.41
2022-12-04T07:34:00.419Z,97982.16
2022-12-04T07:36:27.503Z,97988.09
2022-12-04T07:38:57.366Z,97982.38
2022-12-04T07:41:24.523Z,97983.25
2022-12-04T07:43:51.140Z,97984.84
2022-12-04T07:46:24.508Z,97986.91
2022-12-04T07:48:51.274Z,97985.03
2022-12-04T07:51:20.803Z,97982.44
2022-12-04T07:53:48.162Z,97987.22
2022-12-04T07:56:15.550Z,97985.72
2022-12-04T07:58:43.063Z,97989.00
2022-12-04T08:01:15.606Z,97988.03
2022-12-04T08:03:48.132Z,97986.53
2022-12-04T08:06:17.486Z,97989.16
2022-12-04T08:08:44.175Z,97982.44
2022-12-04T08:11:13.679Z,97983.16
2022-12-04T08:13:40.411Z,97974.78
2022-12-04T08:16:09.227Z,97988.56
2022-12-04T08:18:36.130Z,97990.28
2022-12-04T08:21:11.572Z,97991.25
2022-12-04T08:23:40.962Z,97989.47
2022-12-04T08:26:08.815Z,98000.41
2022-12-04T08:28:36.854Z,97996.16
2022-12-04T08:31:12.786Z,97991.72
2022-12-04T08:33:40.445Z,97990.66
2022-12-04T08:36:09.787Z,97992.25
2022-12-04T08:38:37.169Z,97995.69
2022-12-04T08:41:06.289Z,97995.63
2022-12-04T08:43:33.029Z,97999.09
2022-12-04T08:46:02.669Z,98003.00
2022-12-04T08:48:29.685Z,98001.34
2022-12-04T08:50:56.249Z,97998.66
2022-12-04T08:53:23.889Z,98001.41
2022-12-04T08:55:51.029Z,98012.25
2022-12-04T08:58:18.176Z,98011.41
2022-12-04T09:00:45.062Z,98012.28
2022-12-04T09:03:17.411Z,98012.44
2022-12-04T09:05:48.036Z,98010.50
2022-12-04T09:08:16.728Z,98013.63
2022-12-04T09:10:44.171Z,98021.34
2022-12-04T09:13:10.843Z,98025.56
2022-12-04T09:15:41.404Z,98024.81
2022-12-04T09:18:09.807Z,98034.75
2022-12-04T09:20:36.915Z,98032.38
2022-12-04T09:23:05.741Z,98040.19
2022-12-04T09:25:36.710Z,98035.44
2022-12-04T09:28:03.955Z,98031.22
2022-12-04T09:30:30.492Z,98042.47
2022-12-04T09:32:57.236Z,98047.09
2022-12-04T09:35:24.102Z,98050.63
2022-12-04T09:37:50.775Z,98046.81
2022-12-04T09:40:43.125Z,98047.78
2022-12-04T09:43:30.660Z,98049.44
2022-12-04T09:46:08.212Z,98050.19
2022-12-04T09:48:39.924Z,98052.53
2022-12-04T09:51:16.303Z,98062.41
2022-12-04T09:53:52.963Z,98060.88
2022-12-04T09:56:21.237Z,98063.50
2022-12-04T09:58:54.952Z,98061.63
2022-12-04T10:01:32.885Z,98064.06
2022-12-04T10:04:05.636Z,98067.75
2022-12-04T10:06:39.179Z,98066.28
2022-12-04T10:09:30.206Z,98069.56
2022-12-04T10:12:29.116Z,98072.19
2022-12-04T10:15:43.531Z,98077.06
2022-12-04T10:18:24.803Z,98083.69
2022-12-04T10:21:16.124Z,98074.53
2022-12-04T10:23:51.906Z,98081.22
2022-12-04T10:26:20.156Z,98088.03
2022-12-04T10:28:55.463Z,98085.50
2022-12-04T10:31:23.325Z,98091.19
2022-12-04T10:34:05.598Z,98080.41
2022-12-04T10:36:34.934Z,98084.56
2022-12-04T10:39:01.644Z,98084.50
2022-12-04T10:41:36.293Z,98090.22
2022-12-04T10:44:03.039Z,98081.69
2022-12-04T10:46:34.619Z,98095.41
2022-12-04T10:49:06.857Z,98097.16
2022-12-04T10:51:41.195Z,98087.91
2022-12-04T10:54:32.857Z,98087.75
2022-12-04T10:57:06.240Z,98092.72
2022-12-04T10:59:33.272Z,98087.63
2022-12-04T11:02:11.049Z,98094.66
2022-12-04T11:04:38.194Z,98089.41
2022-12-04T11:07:10.780Z,98088.50
2022-12-04T11:09:38.127Z,98090.44
2022-12-04T11:12:17.343Z,98090.53
2022-12-04T11:14:47.143Z,98090.44
2022-12-04T11:17:19.556Z,98091.41
2022-12-04T11:19:46.285Z,98088.78
2022-12-04T11:22:18.842Z,98102.50
2022-12-04T11:24:56.642Z,98099.22
2022-12-04T11:27:29.455Z,98090.78
2022-12-04T11:29:56.787Z,98102.72
2022-12-04T11:32:30.919Z,98098.38
2022-12-04T11:35:17.435Z,98089.06
2022-12-04T11:38:12.160Z,98102.50
2022-12-04T11:40:39.422Z,98091.06
2022-12-04T11:43:14.009Z,98099.06
2022-12-04T11:45:41.246Z,98083.69
2022-12-04T11:48:19.470Z,98092.38
2022-12-04T11:50:58.505Z,98090.66
2022-12-04T11:54:00.702Z,98088.88
2022-12-04T11:56:48.783Z,98096.59
2022-12-04T11:59:26.794Z,98096.59
2022-12-04T12:02:16.458Z,98099.78
2022-12-04T12:05:07.628Z,98098.59
2022-12-04T12:08:03.195Z,98088.31
2022-12-04T12:10:44.627Z,98091.91
2022-12-04T12:13:26.394Z,98096.84
2022-12-04T12:16:15.616Z,98093.28
2022-12-04T12:18:54.413Z,98100.03
2022-12-04T12:21:43.831Z,98101.66
2022-12-04T12:24:53.394Z,98088.09
2022-12-04T12:27:57.814Z,98088.91
2022-12-04T12:30:28.920Z,98089.69
2022-12-04T12:32:58.623Z,98092.75
2022-12-04T12:35:35.314Z,98096.84
2022-12-04T12:38:14.852Z,98096.03
2022-12-04T12:40:53.367Z,98095.16
2022-12-04T12:43:32.447Z,98099.38
2022-12-04T12:46:11.426Z,98107.91
2022-12-04T12:49:02.268Z,98106.19
2022-12-04T12:51:37.970Z,98103.78
2022-12-04T12:54:13.297Z,98108.66
2022-12-04T12:56:49.544Z,98111.72
2022-12-04T12:59:26.449Z,98113.28
2022-12-04T13:02:01.026Z,98106.84
2022-12-04T13:04:38.793Z,98115.81
2022-12-04T13:07:18.255Z,98110.09
2022-12-04T13:10:01.903Z,98116.91
2022-12-04T13:12:29.133Z,98121.25
2022-12-04T13:14:55.762Z,98120.56
2022-12-04T13:17:39.501Z,98127.25
2022-12-04T13:20:14.163Z,98138.38
2022-12-04T13:23:14.783Z,98142.41
2022-12-04T13:26:07.573Z,98144.81
2022-12-04T13:28:46.247Z,98137.00
2022-12-04T13:31:25.625Z,98144.59
2022-12-04T13:34:31.370Z,98150.53
2022-12-04T13:37:24.577Z,98151.16
2022-12-04T13:40:26.619Z,98150.03
2022-12-04T13:42:53.870Z,98151.63
2022-12-04T13:45:32.204Z,98155.63
2022-12-04T13:48:01.644Z,98153.16
2022-12-04T13:50:35.375Z,98162.25
2022-12-04T13:53:02.372Z,98165.00
2022-12-04T13:55:35.690Z,98164.09
2022-12-04T13:58:04.206Z,98164.25
2022-12-04T14:00:34.698Z,98155.78
2022-12-04T14:03:06.272Z,98145.50
2022-12-04T14:05:41.521Z,98147.50
2022-12-04T14:08:20.380Z,98145.81
2022-12-04T14:11:05.361Z,98157.41
2022-12-04T14:13:45.647Z,98152.31
2022-12-04T14:16:30.183Z,98140.13
2022-12-04T14:19:00.009Z,98145.09
2022-12-04T14:21:39.095Z,98149.00
2022-12-04T14:24:29.892Z,98155.47
2022-12-04T14:27:11.327Z,98161.31
2022-12-04T14:29:49.551Z,98159.06
2022-12-04T14:32:21.604Z,98163.22
2022-12-04T14:34:49.581Z,98169.44
2022-12-04T14:37:25.595Z,98182.19
2022-12-04T14:39:53.455Z,98173.16
2022-12-04T14:42:23.323Z,98187.22
2022-12-04T14:44:57.220Z,98183.72
2022-12-04T14:47:52.980Z,98193.63
2022-12-04T14:50:41.062Z,98187.84
2022-12-04T14:53:13.293Z,98184.44
2022-12-04T14:55:52.344Z,98183.63
2022-12-04T14:58:32.507Z,98181.91
2022-12-04T15:01:19.974Z,98179.97
2022-12-04T15:03:53.514Z,98182.66
2022-12-04T15:06:25.575Z,98179.56
2022-12-04T15:09:15.417Z,98183.22
2022-12-04T15:12:19.164Z,98179.00
2022-12-04T15:14:48.415Z,98184.09
2022-12-04T15:17:17.115Z,98195.91
2022-12-04T15:19:44.305Z,98206.06
2022-12-04T15:22:20.976Z,98208.00
2022-12-04T15:24:47.884Z,98207.72
2022-12-04T15:27:18.039Z,98218.75
2022-12-04T15:29:48.435Z,98220.34
2022-12-04T15:32:20.477Z,98220.75
2022-12-04T15:35:05.795Z,98233.53
2022-12-04T15:37:33.055Z,98237.22
2022-12-04T15:40:00.223Z,98237.28
2022-12-04T15:42:29.801Z,98230.72
2022-12-04T15:45:03.703Z,98247.25
2022-12-04T15:47:33.143Z,98256.50
2022-12-04T15:50:18.086Z,98262.34
2022-12-04T15:53:03.007Z,98259.16
2022-12-04T15:55:32.416Z,98254.91
2022-12-04T15:58:02.765Z,98256.81
2022-12-04T16:00:42.360Z,98264.19
2022-12-04T16:03:31.374Z,98267.59
2022-12-04T16:06:13.206Z,98274.97
2022-12-04T16:08:42.507Z,98276.63
2022-12-04T16:11:18.367Z,98277.81
2022-12-04T16:13:45.108Z,98268.47
2022-12-04T16:16:15.096Z,98275.25
2022-12-04T16:18:43.312Z,98282.06
2022-12-04T16:21:16.307Z,98283.94
2022-12-04T16:23:43.228Z,98284.59
2022-12-04T16:26:13.298Z,98295.38
2022-12-04T16:28:40.011Z,98291.16
2022-12-04T16:31:06.954Z,98294.63
2022-12-04T16:33:33.648Z,98290.56
2022-12-04T16:36:00.311Z,98289.72
2022-12-04T16:38:27.031Z,98289.78
2022-12-04T16:40:53.647Z,98298.22
2022-12-04T16:43:20.354Z,98302.16
2022-12-04T16:45:51.738Z,98298.78
2022-12-04T16:48:19.056Z,98305.59
2022-12-04T16:50:46.319Z,98302.28
2022-12-04T16:53:18.234Z,98305.94
2022-12-04T16:55:47.393Z,98296.91
2022-12-04T16:58:14.779Z,98309.09
2022-12-04T17:00:43.742Z,98304.84
2022-12-04T17:03:42.658Z,98308.34
2022-12-04T17:06:09.520Z,98306.78
2022-12-04T17:08:36.188Z,98304.25
2022-12-04T17:11:03.343Z,98304.22
2022-12-04T17:13:30.306Z,98312.50
2022-12-04T17:15:58.579Z,98311.56
2022-12-04T17:18:25.283Z,98309.72
2022-12-04T17:20:51.927Z,98304.47
2022-12-04T17:23:18.594Z,98300.25
2022-12-04T17:25:45.339Z,98307.78
2022-12-04T17:28:11.935Z,98306.63
2022-12-04T17:30:38.609Z,98317.34
2022-12-04T17:33:05.501Z,98306.47
2022-12-04T17:35:32.187Z,98313.13
2022-12-04T17:38:05.416Z,98309.81
2022-12-04T17:40:33.506Z,98302.16
2022-12-04T17:43:00.228Z,98304.66
2022-12-04T17:45:26.961Z,98301.13
2022-12-04T17:47:53.530Z,98309.28
2022-12-04T17:50:20.263Z,98317.19
2022-12-04T17:52:47.070Z,98323.22
2022-12-04T17:55:13.989Z,98326.44
2022-12-04T17:57:40.677Z,98340.19
2022-12-04T18:00:08.195Z,98339.22
2022-12-04T18:02:41.674Z,98343.28
2022-12-04T18:05:09.271Z,98342.34
2022-12-04T18:07:35.926Z,98346.56
2022-12-04T18:10:02.796Z,98349.16
2022-12-04T18:12:29.518Z,98346.94
2022-12-04T18:14:56.781Z,98337.81
2022-12-04T18:17:23.587Z,98346.13
2022-12-04T18:19:50.367Z,98357.28
2022-12-04T18:22:17.174Z,98354.81
2022-12-04T18:24:43.997Z,98357.50
2022-12-04T18:27:10.944Z,98364.31
2022-12-04T18:29:38.860Z,98362.47
2022-12-04T18:32:06.119Z,98347.66
2022-12-04T18:34:32.982Z,98367.50
2022-12-04T18:36:59.891Z,98370.94
2022-12-04T18:39:26.811Z,98369.09
2022-12-04T18:41:57.118Z,98365.91
2022-12-04T18:44:24.464Z,98361.75
2022-12-04T18:46:51.273Z,98365.91
2022-12-04T18:49:17.978Z,98355.31
2022-12-04T18:51:49.598Z,98372.63
2022-12-04T18:54:23.111Z,98391.44
2022-12-04T18:56:51.070Z,98388.75
2022-12-04T18:59:22.161Z,98342.34
2022-12-04T19:01:51.817Z,98373.06
2022-12-04T19:04:20.336Z,98389.16
2022-12-04T19:06:51.657Z,98385.88
2022-12-04T19:09:35.383Z,98386.41
2022-12-04T19:12:09.021Z,98386.53
2022-12-04T19:14:35.750Z,98395.00
2022-12-04T19:17:02.701Z,98404.41
2022-12-04T19:19:31.739Z,98406.00
2022-12-04T19:21:59.045Z,98397.56
2022-12-04T19:24:25.657Z,98396.97
2022-12-04T19:26:54.026Z,98391.00
2022-12-04T19:29:20.661Z,98402.88
2022-12-04T19:31:47.491Z,98401.91
2022-12-04T19:34:14.323Z,98401.06
2022-12-04T19:36:41.735Z,98405.28
2022-12-04T19:39:08.603Z,98423.75
2022-12-04T19:41:37.178Z,98432.47
2022-12-04T19:44:25.947Z,98436.38
2022-12-04T19:46:51.109Z,98445.03
2022-12-04T19:49:17.643Z,98454.16
2022-12-04T19:51:44.575Z,98446.50
2022-12-04T19:54:13.432Z,98434.84
2022-12-04T19:56:40.318Z,98430.47
2022-12-04T19:59:08.517Z,98440.38
2022-12-04T20:01:35.886Z,98443.97
2022-12-04T20:04:05.757Z,98458.31
2022-12-04T20:06:42.792Z,98459.28
2022-12-04T20:09:13.113Z,98448.25
2022-12-04T20:11:40.612Z,98449.06
2022-12-04T20:14:08.372Z,98438.19
2022-12-04T20:16:36.584Z,98453.41
2022-12-04T20:19:05.182Z,98452.63
2022-12-04T20:21:32.615Z,98455.72
2022-12-04T20:24:03.953Z,98450.66
2022-12-04T20:26:33.868Z,98453.16
2022-12-04T20:29:01.460Z,98453.16
2022-12-04T20:31:34.855Z,98446.38
2022-12-04T20:34:04.775Z,98451.41
2022-12-04T20:36:37.275Z,98466.66
2022-12-04T20:39:04.912Z,98454.25
2022-12-04T20:41:32.054Z,98455.00
2022-12-04T20:44:00.767Z,98456.06
2022-12-04T20:46:33.389Z,98466.13
2022-12-04T20:49:01.922Z,98452.50
2022-12-04T20:51:31.313Z,98466.34
2022-12-04T20:53:59.398Z,98470.44
2022-12-04T20:56:33.052Z,98462.84
2022-12-04T20:59:03.284Z,98466.22
2022-12-04T21:01:30.315Z,98461.13
2022-12-04T21:03:59.242Z,98476.88
2022-12-04T21:06:35.039Z,98463.94
2022-12-04T21:09:06.078Z,98475.19
2022-12-04T21:11:34.651Z,98468.47
2022-12-04T21:14:21.858Z,98470.22
2022-12-04T21:16:49.032Z,98468.84
2022-12-04T21:19:19.598Z,98463.19
2022-12-04T21:21:47.030Z,98474.78
2022-12-04T21:24:15.868Z,98472.75
2022-12-04T21:26:42.797Z,98459.00
2022-12-04T21:29:09.877Z,98455.56
2022-12-04T21:31:37.830Z,98453.16
2022-12-04T21:34:07.306Z,98460.03
2022-12-04T21:36:34.706Z,98452.44
2022-12-04T21:39:01.535Z,98453.09
2022-12-04T21:41:46.671Z,98457.31
2022-12-04T21:44:16.904Z,98464.97
2022-12-04T21:46:44.946Z,98455.63
2022-12-04T21:49:12.662Z,98454.03
2022-12-04T21:51:56.818Z,98444.69
2022-12-04T21:54:25.288Z,98447.66
2022-12-04T21:56:52.034Z,98439.31
2022-12-04T21:59:18.813Z,98440.31
2022-12-04T22:01:45.824Z,98439.59
2022-12-04T22:04:12.770Z,98433.69
2022-12-04T22:06:39.842Z,98434.88
2022-12-04T22:09:08.525Z,98424.72
2022-12-04T22:11:35.111Z,98428.28
2022-12-04T22:14:01.853Z,98428.50
2022-12-04T22:16:30.998Z,98425.38
2022-12-04T22:18:59.195Z,98427.88
2022-12-04T22:21:28.103Z,98428.56
2022-12-04T22:24:00.122Z,98429.28
2022-12-04T22:26:28.135Z,98427.56
2022-12-04T22:28:55.216Z,98432.72
2022-12-04T22:31:25.438Z,98425.06
2022-12-04T22:33:54.191Z,98431.78
2022-12-04T22:36:23.520Z,98435.88
2022-12-04T22:39:09.939Z,98435.59
2022-12-04T22:41:37.897Z,98426.09
2022-12-04T22:44:05.344Z,98432.28
2022-12-04T22:46:32.348Z,98432.41
2022-12-04T22:48:59.952Z,98427.22
2022-12-04T22:51:27.693Z,98431.50
2022-12-04T22:53:56.981Z,98432.41
2022-12-04T22:56:29.080Z,98423.41
2022-12-04T22:58:57.884Z,98423.47
2022-12-04T23:01:30.584Z,98424.03
2022-12-04T23:03:58.006Z,98425.81
2022-12-04T23:06:26.799Z,98428.31
2022-12-04T23:09:02.002Z,98413.84
2022-12-04T23:11:29.268Z,98410.63
2022-12-04T23:14:01.252Z,98413.25
2022-12-04T23:16:30.162Z,98414.84
2022-12-04T23:18:57.733Z,98412.38
2022-12-04T23:21:25.474Z,98420.84
2022-12-04T23:23:53.857Z,98413.75
2022-12-04T23:26:23.384Z,98413.91
2022-12-04T23:28:50.011Z,98415.59
2022-12-04T23:31:17.168Z,98409.81
2022-12-04T23:33:43.783Z,98407.47
2022-12-04T23:36:12.239Z,98407.25
2022-12-04T23:38:40.741Z,98411.53
2022-12-04T23:41:16.155Z,98411.59
2022-12-04T23:43:44.223Z,98414.84
2022-12-04T23:46:12.846Z,98407.06
2022-12-04T23:48:41.188Z,98413.69
2022-12-04T23:51:10.159Z,98407.94
2022-12-04T23:53:37.171Z,98410.06
2022-12-04T23:56:14.219Z,98412.16
2022-12-04T23:58:41.409Z,98424.25
